Time;durP1;ratioP1;P1;durP2;ratioP2;P2;SDS_P1;SDS_P2;PMS_P1;PMS_P2;Temp;Humidity;BMP_temperature;BMP_pressure;BME280_temperature;BME280_humidity;BME280_pressure;Samples;Min_cycle;Max_cycle;Signal;HPM_P1;HPM_P2
2022/06/02 00:01:12;;;;;;;7.70;6.72;;;11.50;99.90;;;;;;4973226;28;95437;-71
2022/06/02 00:03:44;;;;;;;7.65;6.85;;;11.40;99.90;;;;;;4972932;28;92558;-71
2022/06/02 00:06:33;;;;;;;8.30;6.90;;;11.40;99.90;;;;;;4972583;28;92999;-70
2022/06/02 00:09:18;;;;;;;7.88;7.13;;;11.30;99.90;;;;;;4954922;28;98356;-71
2022/06/02 00:11:45;;;;;;;9.55;7.43;;;11.30;99.90;;;;;;4956222;28;97849;-71
2022/06/02 00:14:15;;;;;;;8.73;7.82;;;11.30;99.90;;;;;;4957780;28;92526;-70
2022/06/02 00:16:44;;;;;;;8.48;7.68;;;11.30;99.90;;;;;;4972145;28;92469;-71
2022/06/02 00:19:35;;;;;;;8.85;7.90;;;11.30;99.90;;;;;;4957430;28;93157;-70
2022/06/02 00:22:32;;;;;;;12.65;8.85;;;11.30;99.90;;;;;;4956237;28;94514;-70
2022/06/02 00:25:10;;;;;;;9.50;7.75;;;11.30;99.90;;;;;;4972476;28;92527;-70
2022/06/02 00:27:51;;;;;;;9.55;8.48;;;11.30;99.90;;;;;;4957800;28;91687;-70
2022/06/02 00:30:25;;;;;;;9.55;8.40;;;11.30;99.90;;;;;;4971739;28;95705;-70
2022/06/02 00:33:17;;;;;;;10.52;9.00;;;11.20;99.90;;;;;;4955790;28;95764;-70
2022/06/02 00:35:52;;;;;;;9.38;7.75;;;11.20;99.90;;;;;;4956213;28;94753;-70
2022/06/02 00:38:25;;;;;;;9.73;8.60;;;11.20;99.90;;;;;;4955884;28;92509;-70
2022/06/02 00:40:54;;;;;;;9.38;7.97;;;11.20;99.90;;;;;;4957636;28;93273;-70
2022/06/02 00:43:29;;;;;;;8.63;7.72;;;11.10;99.90;;;;;;4956931;28;92904;-70
2022/06/02 00:46:17;;;;;;;8.80;7.72;;;11.10;99.90;;;;;;4972177;28;92375;-70
2022/06/02 00:48:58;;;;;;;8.85;7.95;;;11.10;99.90;;;;;;4955864;28;92500;-70
2022/06/02 00:51:41;;;;;;;11.75;8.35;;;11.10;99.90;;;;;;4955505;28;95707;-70
2022/06/02 00:57:33;;;;;;;9.05;8.00;;;11.00;99.90;;;;;;4957382;28;92381;-70
2022/06/02 01:00:06;;;;;;;10.15;8.07;;;11.00;99.90;;;;;;4972154;28;92523;-70
2022/06/02 01:02:42;;;;;;;10.73;8.13;;;10.90;99.90;;;;;;4955358;28;95687;-70
2022/06/02 01:05:10;;;;;;;9.48;8.40;;;10.90;99.90;;;;;;4956872;28;95417;-70
2022/06/02 01:07:46;;;;;;;12.38;9.00;;;10.90;99.90;;;;;;4956732;28;92450;-70
2022/06/02 01:10:46;;;;;;;9.63;8.40;;;10.90;99.90;;;;;;4957145;28;92498;-70
2022/06/02 01:13:12;;;;;;;9.07;8.05;;;10.90;99.90;;;;;;4957039;28;94148;-70
2022/06/02 01:15:49;;;;;;;11.23;9.45;;;10.80;99.90;;;;;;4954987;28;95617;-70
2022/06/02 01:18:36;;;;;;;12.27;9.75;;;10.80;99.90;;;;;;4956834;28;92471;-71
2022/06/02 01:21:28;;;;;;;12.07;8.70;;;10.80;99.90;;;;;;4955482;28;92197;-71
2022/06/02 01:24:16;;;;;;;9.80;8.75;;;10.80;99.90;;;;;;4956624;28;93185;-70
2022/06/02 01:26:49;;;;;;;11.65;9.50;;;10.80;99.90;;;;;;4956379;28;95682;-71
2022/06/02 01:29:31;;;;;;;12.23;10.37;;;10.70;99.90;;;;;;4955682;28;94789;-71
2022/06/02 01:32:06;;;;;;;10.65;9.40;;;10.70;99.90;;;;;;4954500;28;95895;-70
2022/06/02 01:35:14;;;;;;;15.07;10.45;;;10.70;99.90;;;;;;4955104;28;93231;-70
2022/06/02 01:37:44;;;;;;;13.07;10.35;;;10.70;99.90;;;;;;4942819;28;93824;-71
2022/06/02 01:40:20;;;;;;;10.98;9.60;;;10.60;99.90;;;;;;4955349;28;93013;-71
2022/06/02 01:42:56;;;;;;;12.20;10.10;;;10.60;99.90;;;;;;4954959;28;92549;-71
2022/06/02 01:45:39;;;;;;;11.75;9.98;;;10.60;99.90;;;;;;4955571;28;93248;-70
2022/06/02 01:48:29;;;;;;;12.90;11.23;;;10.60;99.90;;;;;;4956229;28;93384;-71
2022/06/02 01:51:07;;;;;;;13.82;11.52;;;10.50;99.90;;;;;;4955744;28;92374;-71
2022/06/02 01:53:48;;;;;;;15.15;11.50;;;10.50;99.90;;;;;;4955105;28;93696;-71
2022/06/02 01:56:47;;;;;;;14.70;11.18;;;10.60;99.90;;;;;;4954368;28;95545;-70
2022/06/02 01:59:23;;;;;;;14.10;11.02;;;10.60;99.90;;;;;;4955400;28;95412;-71
2022/06/02 02:02:12;;;;;;;14.02;11.35;;;10.50;99.90;;;;;;4955375;28;92499;-71
2022/06/02 02:05:05;;;;;;;14.13;11.90;;;10.50;99.90;;;;;;4955586;28;92366;-71
2022/06/02 02:08:12;;;;;;;13.23;11.57;;;10.40;99.90;;;;;;4924019;28;95697;-70
2022/06/02 02:11:16;;;;;;;14.13;12.40;;;10.50;99.90;;;;;;4970221;28;93777;-71
2022/06/02 02:13:49;;;;;;;15.05;11.00;;;10.40;99.90;;;;;;4955039;28;92457;-70
2022/06/02 02:16:43;;;;;;;14.43;12.33;;;10.40;99.90;;;;;;4956086;28;91693;-71
2022/06/02 02:19:10;;;;;;;15.82;12.80;;;10.40;99.90;;;;;;4953962;28;95902;-71
2022/06/02 02:21:57;;;;;;;14.20;11.82;;;10.30;99.90;;;;;;4953459;28;95685;-71
2022/06/02 02:24:48;;;;;;;15.27;12.93;;;10.40;99.90;;;;;;4969209;28;95409;-70
2022/06/02 02:27:26;;;;;;;14.25;12.10;;;10.30;99.90;;;;;;4953985;28;92605;-71
2022/06/02 02:30:05;;;;;;;15.23;12.60;;;10.30;99.90;;;;;;4953525;28;95727;-70
2022/06/02 02:32:44;;;;;;;16.75;12.75;;;10.30;99.90;;;;;;4955141;28;92995;-71
2022/06/02 02:35:43;;;;;;;17.95;11.82;;;10.20;99.90;;;;;;4969951;28;92461;-70
2022/06/02 02:38:48;;;;;;;14.35;11.50;;;10.20;99.90;;;;;;4955012;28;92452;-70
2022/06/02 02:41:36;;;;;;;17.98;12.55;;;10.20;99.90;;;;;;4969955;28;95766;-71
2022/06/02 02:44:23;;;;;;;15.65;12.00;;;10.20;99.90;;;;;;4955442;28;93091;-70
2022/06/02 02:47:06;;;;;;;15.38;12.20;;;10.20;99.90;;;;;;4954882;28;92531;-70
2022/06/02 02:49:54;;;;;;;18.17;12.30;;;10.10;99.90;;;;;;4955315;28;92476;-71
2022/06/02 02:52:33;;;;;;;15.50;12.20;;;10.10;99.90;;;;;;4952049;28;98678;-71
2022/06/02 02:55:15;;;;;;;14.30;11.82;;;10.10;99.90;;;;;;4973049;28;96275;-70
2022/06/02 02:57:58;;;;;;;18.58;13.70;;;10.10;99.90;;;;;;4958364;28;92422;-70
2022/06/02 03:00:44;;;;;;;15.10;12.38;;;10.10;99.90;;;;;;4973172;28;92535;-70
2022/06/02 03:03:11;;;;;;;15.32;12.95;;;10.10;99.90;;;;;;4956789;28;95724;-71
2022/06/02 03:05:46;;;;;;;17.67;13.35;;;10.00;99.90;;;;;;4972515;28;94055;-71
2022/06/02 03:08:41;;;;;;;15.23;12.77;;;10.00;99.90;;;;;;4958372;28;92993;-71
2022/06/02 03:11:42;;;;;;;17.95;12.45;;;10.00;99.90;;;;;;4958732;28;91759;-71
2022/06/02 03:14:42;;;;;;;15.82;12.45;;;9.90;99.90;;;;;;4957582;28;93384;-71
2022/06/02 03:17:27;;;;;;;18.55;12.70;;;9.90;99.90;;;;;;4957810;28;93024;-71
2022/06/02 03:20:22;;;;;;;16.23;12.90;;;9.90;99.90;;;;;;4955172;28;94870;-71
2022/06/02 03:23:08;;;;;;;17.70;12.65;;;9.90;99.90;;;;;;4957998;28;92373;-71
2022/06/02 03:25:38;;;;;;;19.50;13.07;;;9.90;99.90;;;;;;4956400;28;94212;-71
2022/06/02 03:28:14;;;;;;;15.88;13.90;;;9.90;99.90;;;;;;4957892;28;92980;-71
2022/06/02 03:31:00;;;;;;;16.05;13.13;;;9.90;99.90;;;;;;4972607;28;92529;-71
2022/06/02 03:33:30;;;;;;;15.05;12.55;;;10.00;99.90;;;;;;4957788;28;92498;-71
2022/06/02 03:36:40;;;;;;;16.95;13.18;;;9.90;99.90;;;;;;4955925;28;95354;-71
2022/06/02 03:39:11;;;;;;;16.90;12.90;;;10.00;99.90;;;;;;4897202;28;94116;-71
2022/06/02 03:42:03;;;;;;;16.10;12.98;;;9.90;99.90;;;;;;4931207;28;92961;-71
2022/06/02 03:44:36;;;;;;;16.08;13.80;;;10.00;99.90;;;;;;4957912;28;92451;-71
2022/06/02 03:47:35;;;;;;;14.85;12.27;;;10.00;99.90;;;;;;4956026;28;95445;-71
2022/06/02 03:50:28;;;;;;;14.82;12.82;;;10.00;99.90;;;;;;4957211;28;95569;-71
2022/06/02 03:53:21;;;;;;;12.75;11.32;;;10.10;99.90;;;;;;4933844;28;92733;-71
2022/06/02 03:56:18;;;;;;;12.33;10.73;;;10.60;99.90;;;;;;4956015;28;92605;-71
2022/06/02 03:59:00;;;;;;;10.73;9.50;;;11.30;99.90;;;;;;4949392;28;92998;-71
2022/06/02 04:01:36;;;;;;;11.63;10.43;;;12.20;99.90;;;;;;4972650;28;94272;-71
2022/06/02 04:04:40;;;;;;;11.35;10.05;;;13.20;99.90;;;;;;4971401;28;92514;-71
2022/06/02 04:07:08;;;;;;;11.75;9.38;;;13.90;99.20;;;;;;4957630;28;91704;-71
2022/06/02 04:09:58;;;;;;;11.38;9.88;;;14.40;98.20;;;;;;4957768;28;92375;-71
2022/06/02 04:15:35;;;;;;;10.63;9.63;;;14.50;97.20;;;;;;4970988;28;95453;-71
2022/06/02 04:18:20;;;;;;;11.00;9.90;;;14.10;97.40;;;;;;4957689;28;92315;-71
2022/06/02 04:21:12;;;;;;;11.05;9.95;;;13.80;97.90;;;;;;4972354;28;93154;-71
2022/06/02 04:24:14;;;;;;;12.20;11.00;;;13.50;98.10;;;;;;4957701;28;93014;-71
2022/06/02 04:26:48;;;;;;;11.70;10.60;;;13.30;98.70;;;;;;4957292;28;93208;-71
2022/06/02 04:29:19;;;;;;;;;;;13.00;99.00;;;;;;4956121;28;92532;-71
2022/06/02 04:32:17;;;;;;;12.70;11.40;;;12.70;99.30;;;;;;4958836;28;93316;-71
2022/06/02 04:35:06;;;;;;;11.88;10.55;;;12.70;99.70;;;;;;4972102;28;92990;-71
2022/06/02 04:37:50;;;;;;;14.05;11.77;;;12.50;99.90;;;;;;4956801;28;92408;-71
2022/06/02 04:40:26;;;;;;;14.25;12.13;;;12.50;99.90;;;;;;4956940;28;92400;-71
2022/06/02 04:43:34;;;;;;;12.43;11.05;;;12.40;99.90;;;;;;4955362;28;95536;-71
2022/06/02 04:46:29;;;;;;;12.68;11.35;;;12.40;99.90;;;;;;4957200;28;95450;-71
2022/06/02 04:49:19;;;;;;;12.50;10.40;;;12.40;99.90;;;;;;4956588;28;92376;-71
2022/06/02 04:52:05;;;;;;;11.88;10.77;;;12.30;99.90;;;;;;4956947;28;92556;-71
2022/06/02 04:54:45;;;;;;;15.00;11.48;;;12.40;99.90;;;;;;4955996;28;93242;-71
2022/06/02 04:57:33;;;;;;;13.25;11.77;;;12.40;99.90;;;;;;4956472;28;93123;-71
2022/06/02 05:00:05;;;;;;;12.98;11.63;;;12.40;99.90;;;;;;4956423;28;92425;-71
2022/06/02 05:02:52;;;;;;;12.25;11.00;;;12.40;99.90;;;;;;4956773;28;91658;-71
2022/06/02 05:05:51;;;;;;;13.35;10.93;;;12.50;99.90;;;;;;4970873;28;95862;-71
2022/06/02 05:08:18;;;;;;;11.93;10.63;;;12.80;99.90;;;;;;4956261;28;92859;-71
2022/06/02 05:11:07;;;;;;;11.65;10.48;;;13.00;99.90;;;;;;4954992;28;94795;-71
2022/06/02 05:13:56;;;;;;;11.13;10.05;;;13.40;99.90;;;;;;4954886;28;92526;-71
2022/06/02 05:16:55;;;;;;;11.32;10.10;;;13.60;99.90;;;;;;4970021;28;95893;-71
2022/06/02 05:20:04;;;;;;;11.38;10.20;;;13.80;99.50;;;;;;4956023;28;92892;-71
2022/06/02 05:22:48;;;;;;;10.57;9.57;;;13.90;99.60;;;;;;4948108;28;92669;-71
2022/06/02 05:25:38;;;;;;;10.70;9.70;;;14.20;99.60;;;;;;4956414;28;92552;-71
2022/06/02 05:28:04;;;;;;;10.52;9.50;;;14.30;99.30;;;;;;4956421;28;93236;-72
2022/06/02 05:30:50;;;;;;;9.57;8.57;;;14.20;99.40;;;;;;4971443;28;97026;-71
2022/06/02 05:33:39;;;;;;;8.20;7.50;;;14.30;99.20;;;;;;4956597;28;92348;-71
2022/06/02 05:36:22;;;;;;;7.22;6.60;;;14.30;99.40;;;;;;4954605;28;97756;-71
2022/06/02 05:39:11;;;;;;;8.02;7.40;;;14.30;99.30;;;;;;4970071;28;96807;-71
2022/06/02 05:41:59;;;;;;;7.15;6.10;;;14.60;98.90;;;;;;4954934;28;97966;-71
2022/06/02 05:44:32;;;;;;;6.75;6.03;;;14.80;98.60;;;;;;4971365;28;92590;-71
2022/06/02 05:47:05;;;;;;;7.30;6.67;;;14.90;98.50;;;;;;4970923;28;92470;-71
2022/06/02 05:49:37;;;;;;;7.10;6.40;;;15.00;98.20;;;;;;4971427;28;93183;-71
2022/06/02 05:52:26;;;;;;;7.70;7.00;;;15.10;98.10;;;;;;4956254;28;93079;-71
2022/06/02 05:55:15;;;;;;;6.57;5.93;;;15.30;98.00;;;;;;4954224;28;92585;-71
2022/06/02 05:58:08;;;;;;;5.93;5.43;;;15.50;97.40;;;;;;4955456;28;91648;-71
2022/06/02 06:01:00;;;;;;;6.35;4.35;;;15.60;97.40;;;;;;4970919;28;95903;-71
2022/06/02 06:03:33;;;;;;;5.88;5.38;;;15.60;97.20;;;;;;4971287;28;92937;-71
2022/06/02 06:06:35;;;;;;;5.10;4.63;;;15.80;97.10;;;;;;4954815;28;94939;-71
2022/06/02 06:09:12;;;;;;;5.03;4.50;;;16.00;96.70;;;;;;4970750;28;92492;-71
2022/06/02 06:12:15;;;;;;;5.03;4.53;;;15.90;97.00;;;;;;4971133;28;93017;-71
2022/06/02 06:14:45;;;;;;;4.65;4.07;;;16.00;96.50;;;;;;4955852;28;92938;-71
2022/06/02 06:17:31;;;;;;;4.90;4.50;;;16.00;96.20;;;;;;4955886;28;92460;-71
2022/06/02 06:20:19;;;;;;;5.88;3.85;;;16.00;96.10;;;;;;4956042;28;92607;-71
2022/06/02 06:23:09;;;;;;;4.78;4.45;;;15.90;96.30;;;;;;4970831;28;93260;-71
2022/06/02 06:26:02;;;;;;;4.45;4.05;;;15.90;96.30;;;;;;4956262;28;92823;-71
2022/06/02 06:28:40;;;;;;;5.20;4.03;;;15.80;96.20;;;;;;4959069;28;92495;-71
2022/06/02 06:31:24;;;;;;;3.63;3.33;;;15.80;96.80;;;;;;4959230;28;92482;-71
2022/06/02 06:34:23;;;;;;;4.97;4.22;;;15.80;96.70;;;;;;4956539;28;99975;-71
2022/06/02 06:37:02;;;;;;;4.45;4.05;;;15.80;96.60;;;;;;4973934;28;97973;-71
2022/06/02 06:39:53;;;;;;;3.92;3.67;;;15.70;96.60;;;;;;4958183;28;92466;-71
2022/06/02 06:42:50;;;;;;;4.20;3.00;;;15.80;96.80;;;;;;4957476;28;92580;-71
2022/06/02 06:45:31;;;;;;;5.13;3.80;;;15.80;96.80;;;;;;4957297;28;95748;-71
2022/06/02 06:48:12;;;;;;;3.90;3.60;;;15.90;96.70;;;;;;4959156;28;93050;-71
2022/06/02 06:51:01;;;;;;;3.95;3.65;;;16.00;96.30;;;;;;4974184;28;92863;-71
2022/06/02 06:53:28;;;;;;;2.92;2.72;;;16.10;96.20;;;;;;4959036;28;91733;-71
2022/06/02 06:55:57;;;;;;;3.88;3.58;;;16.00;96.00;;;;;;4958949;28;93325;-71
2022/06/02 06:58:41;;;;;;;3.78;3.33;;;16.00;95.90;;;;;;4973535;28;95698;-71
2022/06/02 07:01:53;;;;;;;3.90;3.60;;;16.10;95.90;;;;;;4957783;28;94732;-71
2022/06/02 07:05:00;;;;;;;3.33;3.03;;;16.10;96.20;;;;;;4943523;28;92502;-71
2022/06/02 07:08:11;;;;;;;4.47;2.92;;;16.20;95.90;;;;;;4956424;28;93081;-71
2022/06/02 07:10:49;;;;;;;6.20;4.15;;;16.40;95.60;;;;;;4958399;28;92986;-71
2022/06/02 07:13:48;;;;;;;4.57;4.25;;;16.50;95.50;;;;;;4973341;28;92418;-71
2022/06/02 07:16:26;;;;;;;3.20;2.90;;;16.70;95.30;;;;;;4946464;28;92743;-71
2022/06/02 07:19:03;;;;;;;3.65;3.35;;;16.80;95.40;;;;;;4958700;28;93124;-71
2022/06/02 07:21:52;;;;;;;4.10;2.72;;;16.90;95.00;;;;;;4958502;28;92870;-71
2022/06/02 07:24:41;;;;;;;4.38;3.22;;;16.90;94.60;;;;;;4973396;28;92464;-71
2022/06/02 07:27:19;;;;;;;2.15;2.00;;;17.00;94.30;;;;;;4957026;28;92511;-71
2022/06/02 07:30:10;;;;;;;3.42;3.17;;;17.10;93.90;;;;;;4957165;28;95667;-71
2022/06/02 07:33:08;;;;;;;4.53;3.13;;;17.30;92.60;;;;;;4958017;28;95492;-71
2022/06/02 07:36:08;;;;;;;2.67;2.47;;;17.40;92.20;;;;;;4973110;28;92428;-71
2022/06/02 07:39:11;;;;;;;3.13;2.67;;;17.70;92.30;;;;;;4957205;28;92380;-71
2022/06/02 07:42:13;;;;;;;3.28;2.97;;;18.20;91.70;;;;;;4973058;28;94422;-71
2022/06/02 07:44:43;;;;;;;3.15;2.92;;;18.40;90.80;;;;;;4947500;28;94981;-71
2022/06/02 07:47:48;;;;;;;3.47;3.15;;;18.20;90.90;;;;;;4958067;28;92491;-71
2022/06/02 07:50:29;;;;;;;5.68;2.88;;;18.20;90.60;;;;;;4958550;28;92280;-71
2022/06/02 07:53:08;;;;;;;3.53;3.33;;;18.30;90.90;;;;;;4972921;28;95878;-71
2022/06/02 07:56:13;;;;;;;2.95;2.72;;;18.60;90.80;;;;;;4957448;28;93134;-71
2022/06/02 07:58:58;;;;;;;3.10;2.78;;;18.90;89.50;;;;;;4955552;28;94904;-71
2022/06/02 08:01:47;;;;;;;4.25;3.22;;;18.90;89.70;;;;;;4957752;28;92462;-71
2022/06/02 08:04:42;;;;;;;2.45;2.30;;;19.10;89.50;;;;;;4957474;28;93024;-71
2022/06/02 08:07:23;;;;;;;4.00;2.30;;;19.20;89.00;;;;;;4972837;28;93068;-72
2022/06/02 08:10:12;;;;;;;2.78;2.55;;;19.10;88.60;;;;;;4956875;28;92505;-72
2022/06/02 08:13:11;;;;;;;4.05;2.72;;;19.20;89.30;;;;;;4957581;28;92470;-72
2022/06/02 08:15:57;;;;;;;1.92;1.80;;;20.10;87.80;;;;;;4956179;28;93569;-71
2022/06/02 08:18:52;;;;;;;4.35;2.08;;;21.50;81.00;;;;;;4957352;28;93032;-72
2022/06/02 08:21:40;;;;;;;1.98;1.88;;;22.60;78.10;;;;;;4972377;28;92533;-72
2022/06/02 08:24:54;;;;;;;2.28;1.80;;;23.90;75.60;;;;;;4955799;28;93076;-72
2022/06/02 08:27:40;;;;;;;1.95;1.50;;;25.60;69.90;;;;;;4955882;28;96315;-72
2022/06/02 08:30:30;;;;;;;3.25;1.60;;;26.00;63.90;;;;;;4957334;28;95311;-72
2022/06/02 08:33:21;;;;;;;2.80;2.03;;;25.70;64.60;;;;;;4929244;28;92577;-72
2022/06/02 08:36:11;;;;;;;2.60;2.03;;;25.60;63.70;;;;;;4955909;28;92558;-72
2022/06/02 08:38:56;;;;;;;2.05;1.70;;;25.20;62.90;;;;;;4971834;28;94059;-72
2022/06/02 08:41:45;;;;;;;2.45;2.25;;;25.10;62.90;;;;;;4972090;28;93124;-72
2022/06/02 08:44:30;;;;;;;2.25;1.63;;;25.10;62.50;;;;;;4957376;28;92986;-72
2022/06/02 08:47:35;;;;;;;2.33;1.70;;;25.20;62.20;;;;;;4957737;28;91722;-71
2022/06/02 08:50:10;;;;;;;2.47;2.20;;;25.00;62.50;;;;;;4955488;28;95840;-72
2022/06/02 08:53:15;;;;;;;2.65;2.45;;;24.50;63.20;;;;;;4971796;28;95489;-72
2022/06/02 08:55:59;;;;;;;2.38;1.80;;;24.20;64.30;;;;;;4970503;28;94941;-72
2022/06/02 08:59:09;;;;;;;2.47;2.28;;;24.00;64.50;;;;;;4957019;28;92509;-72
2022/06/02 09:02:01;;;;;;;2.53;2.22;;;24.40;63.10;;;;;;4955266;28;96098;-72
2022/06/02 09:04:36;;;;;;;1.92;1.80;;;24.90;62.30;;;;;;4956704;28;93037;-72
2022/06/02 09:07:39;;;;;;;2.90;2.20;;;25.60;62.20;;;;;;4971972;28;92538;-72
2022/06/02 09:10:35;;;;;;;2.53;2.30;;;25.50;60.10;;;;;;4971998;28;92453;-72
2022/06/02 09:13:39;;;;;;;3.22;1.80;;;24.80;61.80;;;;;;4956682;28;93345;-72
2022/06/02 09:16:37;;;;;;;2.20;1.60;;;24.30;61.70;;;;;;4955360;28;99237;-72
2022/06/02 09:19:28;;;;;;;2.95;2.75;;;23.90;62.90;;;;;;4955218;28;92532;-72
2022/06/02 09:21:54;;;;;;;2.53;2.33;;;23.40;64.30;;;;;;4971729;28;92542;-72
2022/06/02 09:25:07;;;;;;;2.80;2.60;;;23.30;64.90;;;;;;4954761;28;107494;-72
2022/06/02 09:27:56;;;;;;;3.28;1.77;;;23.40;63.30;;;;;;4956211;28;97645;-72
2022/06/02 09:30:48;;;;;;;4.68;3.05;;;23.40;64.20;;;;;;4971621;28;92550;-72
2022/06/02 09:37:59;;;;;;;2.42;2.00;;;23.60;65.10;;;;;;4955583;28;92709;-72
2022/06/02 09:40:47;;;;;;;2.50;2.40;;;23.50;65.30;;;;;;4956192;28;97682;-73
2022/06/02 09:43:28;;;;;;;2.28;2.08;;;23.40;65.80;;;;;;4954804;28;92517;-73
2022/06/02 09:46:07;;;;;;;2.45;1.95;;;23.30;66.00;;;;;;4971909;28;91743;-72
2022/06/02 09:49:10;;;;;;;2.22;2.13;;;23.40;65.80;;;;;;4956260;28;92560;-72
2022/06/02 09:51:37;;;;;;;2.60;2.40;;;23.40;65.50;;;;;;4971173;28;94626;-73
2022/06/02 09:54:22;;;;;;;3.92;3.55;;;23.30;65.70;;;;;;4953174;28;95127;-72
2022/06/02 09:57:04;;;;;;;3.25;3.05;;;23.40;64.80;;;;;;4956193;28;94749;-72
2022/06/02 09:59:41;;;;;;;3.15;2.97;;;23.40;62.70;;;;;;4956209;28;93316;-72
2022/06/02 10:02:47;;;;;;;4.28;2.90;;;23.30;63.90;;;;;;4955121;28;93432;-72
2022/06/02 10:05:28;;;;;;;3.47;3.20;;;23.40;65.30;;;;;;4925902;28;92609;-72
2022/06/02 10:08:16;;;;;;;3.25;2.13;;;23.20;65.10;;;;;;4971207;28;92553;-72
2022/06/02 10:11:10;;;;;;;4.13;2.63;;;23.00;66.10;;;;;;4955781;28;93267;-72
2022/06/02 10:13:43;;;;;;;3.70;3.40;;;22.60;65.50;;;;;;4971448;28;92435;-72
2022/06/02 10:16:16;;;;;;;2.40;2.20;;;22.30;66.50;;;;;;4970818;28;93128;-72
2022/06/02 10:19:05;;;;;;;2.67;2.40;;;22.20;66.90;;;;;;4954774;28;92457;-72
2022/06/02 10:21:38;;;;;;;2.40;1.77;;;22.40;67.40;;;;;;4954609;28;96107;-72
2022/06/02 10:24:51;;;;;;;5.55;3.33;;;22.30;67.00;;;;;;4955516;28;95447;-72
2022/06/02 10:27:37;;;;;;;2.47;2.28;;;22.40;68.10;;;;;;4954311;28;92476;-72
2022/06/02 10:30:42;;;;;;;2.20;2.10;;;22.20;68.80;;;;;;4954561;28;92580;-72
2022/06/02 10:33:11;;;;;;;2.67;2.47;;;22.10;68.60;;;;;;4953887;28;95655;-72
2022/06/02 10:36:00;;;;;;;2.78;2.58;;;22.10;69.50;;;;;;4955101;28;93353;-72
2022/06/02 10:38:45;;;;;;;3.17;2.30;;;22.30;69.60;;;;;;4970674;28;92591;-72
2022/06/02 10:41:48;;;;;;;3.05;2.47;;;22.20;67.60;;;;;;4970880;28;91705;-72
2022/06/02 10:44:19;;;;;;;3.80;3.25;;;22.20;67.50;;;;;;4955344;28;93361;-72
2022/06/02 10:46:46;;;;;;;3.05;2.95;;;22.30;68.00;;;;;;4955424;28;93163;-72
2022/06/02 10:49:15;;;;;;;3.55;3.22;;;22.50;66.20;;;;;;4969183;28;94911;-72
2022/06/02 10:52:19;;;;;;;3.97;3.30;;;22.60;65.80;;;;;;4955390;28;92559;-72
2022/06/02 10:54:55;;;;;;;2.47;2.15;;;22.60;66.30;;;;;;4953622;28;95987;-72
2022/06/02 10:57:47;;;;;;;2.30;2.13;;;22.40;66.20;;;;;;4954835;28;92972;-72
2022/06/02 11:00:33;;;;;;;2.58;1.83;;;22.30;67.40;;;;;;4955419;28;92996;-72
2022/06/02 11:03:15;;;;;;;4.03;3.63;;;22.30;67.20;;;;;;4970896;28;93096;-72
2022/06/02 11:06:22;;;;;;;3.70;3.45;;;22.20;67.30;;;;;;4955233;28;93070;-72
2022/06/02 11:09:15;;;;;;;3.70;3.33;;;22.00;67.80;;;;;;4955489;28;93067;-72
2022/06/02 11:11:54;;;;;;;3.38;3.15;;;21.80;68.90;;;;;;4940729;28;92921;-72
2022/06/02 11:14:33;;;;;;;3.35;2.88;;;21.70;67.90;;;;;;4956258;28;92530;-72
2022/06/02 11:17:18;;;;;;;3.10;2.53;;;21.60;68.90;;;;;;4957201;28;96408;-72
2022/06/02 11:20:33;;;;;;;2.22;2.03;;;21.70;69.00;;;;;;4958656;28;95418;-72
2022/06/02 11:23:27;;;;;;;2.60;2.40;;;21.60;70.40;;;;;;4905427;28;92646;-72
2022/06/02 11:26:13;;;;;;;2.70;2.20;;;21.60;70.50;;;;;;4958624;28;92480;-72
2022/06/02 11:29:01;;;;;;;2.67;2.47;;;21.50;70.30;;;;;;4958338;28;93306;-72
2022/06/02 11:31:55;;;;;;;2.20;2.10;;;21.50;69.40;;;;;;4956601;28;95535;-72
2022/06/02 11:34:36;;;;;;;2.78;2.30;;;21.70;68.80;;;;;;4958354;28;92527;-72
2022/06/02 11:37:16;;;;;;;2.38;2.17;;;21.80;69.20;;;;;;4973471;28;91807;-72
2022/06/02 11:40:06;;;;;;;2.50;2.40;;;22.10;67.80;;;;;;4972892;28;95799;-72
2022/06/02 11:43:12;;;;;;;3.75;3.47;;;22.50;66.40;;;;;;4972666;28;101706;-72
2022/06/02 11:45:58;;;;;;;2.88;2.67;;;22.60;67.30;;;;;;4926270;28;94855;-72
2022/06/02 11:48:48;;;;;;;3.38;3.17;;;22.40;66.90;;;;;;4958054;28;92436;-72
2022/06/02 11:51:40;;;;;;;2.13;1.77;;;22.20;67.60;;;;;;4975789;28;93766;-72
2022/06/02 11:54:48;;;;;;;4.15;3.38;;;22.10;67.40;;;;;;4976149;28;93058;-72
2022/06/02 11:57:45;;;;;;;2.35;2.13;;;22.00;68.10;;;;;;4976032;28;92600;-72
2022/06/02 12:00:41;;;;;;;1.88;1.75;;;22.00;68.10;;;;;;4976149;28;92870;-72
2022/06/02 12:03:44;;;;;;;3.80;1.83;;;22.20;67.10;;;;;;4976040;28;95914;-72
2022/06/02 12:06:32;;;;;;;2.45;2.30;;;22.50;67.50;;;;;;4992773;28;93628;-72
2022/06/02 12:09:51;;;;;;;3.35;1.42;;;22.80;64.50;;;;;;4977762;28;92987;-72
2022/06/02 12:12:45;;;;;;;2.63;2.42;;;23.00;64.20;;;;;;4960511;28;92525;-72
2022/06/02 12:15:30;;;;;;;2.85;2.65;;;23.40;63.00;;;;;;4976003;28;95681;-72
2022/06/02 12:18:15;;;;;;;2.30;1.80;;;23.80;62.80;;;;;;4977097;28;95392;-72
2022/06/02 12:21:03;;;;;;;2.15;2.05;;;24.20;61.20;;;;;;4975517;28;92450;-72
2022/06/02 12:24:04;;;;;;;2.88;2.67;;;24.40;61.30;;;;;;4975545;28;92556;-72
2022/06/02 12:27:05;;;;;;;2.63;2.53;;;24.30;62.70;;;;;;4975133;28;93161;-72
2022/06/02 12:29:45;;;;;;;2.90;2.80;;;24.00;63.10;;;;;;4976746;28;93067;-72
2022/06/02 12:32:44;;;;;;;2.55;1.60;;;23.80;63.40;;;;;;4977052;28;92544;-72
2022/06/02 12:35:47;;;;;;;2.78;2.03;;;23.80;63.10;;;;;;4975995;28;91928;-72
2022/06/02 12:38:35;;;;;;;1.55;1.30;;;23.80;62.20;;;;;;4975454;28;93077;-72
2022/06/02 12:41:20;;;;;;;2.88;2.67;;;23.80;63.10;;;;;;4975247;28;95489;-72
2022/06/02 12:43:59;;;;;;;3.00;2.78;;;23.70;61.30;;;;;;4975518;28;94749;-72
2022/06/02 12:46:56;;;;;;;2.03;1.60;;;23.50;62.20;;;;;;4975660;28;92574;-72
2022/06/02 12:49:46;;;;;;;2.35;1.98;;;23.40;63.40;;;;;;4959124;28;95614;-72
2022/06/02 12:52:34;;;;;;;2.08;1.75;;;23.40;63.80;;;;;;4950543;28;95571;-72
2022/06/02 12:58:50;;;;;;;2.38;2.17;;;23.30;63.10;;;;;;4938497;28;92633;-72
2022/06/02 13:01:26;;;;;;;2.20;2.10;;;23.00;63.90;;;;;;4976592;28;93272;-72
2022/06/02 13:03:56;;;;;;;3.00;2.88;;;23.10;63.30;;;;;;4975312;28;95668;-72
2022/06/02 13:07:01;;;;;;;3.33;3.13;;;22.90;63.70;;;;;;4975029;28;92621;-72
2022/06/02 13:09:47;;;;;;;2.45;1.70;;;22.90;63.70;;;;;;4974952;28;92565;-72
2022/06/02 13:12:32;;;;;;;2.47;1.67;;;23.00;63.10;;;;;;4975064;28;95557;-72
2022/06/02 13:15:18;;;;;;;2.97;2.38;;;23.20;62.70;;;;;;4974948;28;95261;-72
2022/06/02 13:18:08;;;;;;;1.67;1.30;;;23.50;63.70;;;;;;4976187;28;92496;-72
2022/06/02 13:21:23;;;;;;;2.13;1.92;;;23.80;62.30;;;;;;4976260;28;92359;-72
2022/06/02 13:24:11;;;;;;;2.70;2.05;;;24.10;61.60;;;;;;4976054;28;93440;-72
2022/06/02 13:26:48;;;;;;;4.57;2.47;;;24.20;62.30;;;;;;4968124;28;95501;-72
2022/06/02 13:29:31;;;;;;;3.42;3.20;;;24.10;62.60;;;;;;4956742;28;92658;-72
2022/06/02 13:32:36;;;;;;;4.68;2.13;;;23.80;61.70;;;;;;4956830;28;91787;-72
2022/06/02 13:35:31;;;;;;;3.35;3.05;;;23.70;60.60;;;;;;4954899;28;96629;-72
2022/06/02 13:38:21;;;;;;;3.75;3.25;;;23.60;62.30;;;;;;4953881;28;96320;-72
2022/06/02 13:41:15;;;;;;;1.80;1.70;;;23.50;60.80;;;;;;4953932;28;95535;-72
2022/06/02 13:44:04;;;;;;;2.38;2.17;;;23.40;63.10;;;;;;4954671;28;92534;-72
2022/06/02 13:46:49;;;;;;;2.10;1.95;;;23.30;62.10;;;;;;4954843;28;95863;-72
2022/06/02 13:49:40;;;;;;;3.40;3.20;;;23.50;61.60;;;;;;4956497;28;93131;-72
2022/06/02 13:52:27;;;;;;;3.70;2.15;;;23.60;62.00;;;;;;4954964;28;93100;-73
2022/06/02 13:57:55;;;;;;;3.95;3.75;;;24.10;61.40;;;;;;4956124;28;93244;-72
2022/06/02 14:00:47;;;;;;;2.63;2.42;;;24.20;60.90;;;;;;4954860;28;96544;-72
2022/06/02 14:03:45;;;;;;;4.28;3.05;;;24.40;61.80;;;;;;4955297;28;92431;-72
2022/06/02 14:06:24;;;;;;;3.30;2.40;;;24.10;62.30;;;;;;4956443;28;92422;-72
2022/06/02 14:09:14;;;;;;;2.47;2.08;;;23.70;62.80;;;;;;4954651;28;95727;-72
2022/06/02 14:12:28;;;;;;;2.80;2.60;;;23.70;62.30;;;;;;4954493;28;95426;-72
2022/06/02 14:15:07;;;;;;;2.28;2.17;;;23.90;62.00;;;;;;4932622;28;92526;-72
2022/06/02 14:18:03;;;;;;;1.88;1.77;;;23.70;60.90;;;;;;4954513;28;92388;-72
2022/06/02 14:20:50;;;;;;;2.20;2.00;;;23.60;60.80;;;;;;4947188;28;97167;-72
2022/06/02 14:23:23;;;;;;;3.65;3.35;;;23.60;61.40;;;;;;4956198;28;93043;-73
2022/06/02 14:26:06;;;;;;;2.13;1.90;;;23.80;60.50;;;;;;4955664;28;92402;-72
2022/06/02 14:28:33;;;;;;;2.25;2.10;;;24.00;59.50;;;;;;4956583;28;92172;-72
2022/06/02 14:31:08;;;;;;;3.08;2.88;;;24.00;58.70;;;;;;4955508;28;93212;-73
2022/06/02 14:33:38;;;;;;;3.60;3.05;;;24.20;58.30;;;;;;4955928;28;92851;-72
2022/06/02 14:36:20;;;;;;;1.70;1.60;;;24.20;57.60;;;;;;4953057;28;95000;-72
2022/06/02 14:39:21;;;;;;;3.55;3.28;;;24.50;57.80;;;;;;4937931;28;92513;-72
2022/06/02 14:43:03;;;;;;;4.30;3.28;;;24.50;59.20;;;;;;4955363;28;93189;-72